PWSweather.com
Personal Weather Stations
Station Observations
KOHAVON11
Long Road Station, Avon, OH 44011

Long Road StationAvon, OH 44011

Lat: 41.437, Lon: -82.0477

Elevation: 686

Station Type: Davis Vantage Pro2

http://www.avon-weather.com

High Low Average
Temperature 40.4°F4.7°C 28.3°F-2.1°C 33.2°F0.7°C
Dew Point 23.8°F-4.6°C 12.9°F-10.6°C 17.9°F-7.8°C
Winds 18.0 mph 29.0 kmh 2.0 mph 3.2 kmh 7.0 mph SW11.3 kmh SW
Wind Gusts 26.0 mph41.8 kmh 7.0 mph11.3 kmh 17.0 mph27.4 kmh
Humidity 62% 46% 54%
Pressure 30.04 in1017.3 mb 29.91 in1012.9 mb -
Precipitation 0.00 in0.0 mm - -
Hour Temp Dew Point Humidity Winds Wind Gusts Pressure Precip Precip Rate Daily Precip Total
12:01 AM 31.9°F-0.1°C 18.2°F-7.7°C 57% 13.0 mph W20.9 kmh W 26.0 mph41.8 kmh 30.00 in1015.9 mb 0.00 in0.0 mm 0.00 in0.0 mm 0.00 in0.0 mm
12:06 AM 31.8°F-0.1°C 18.5°F-7.5°C 58% 8.0 mph SW12.9 kmh SW 20.0 mph32.2 kmh 30.00 in1015.9 mb 0.00 in0.0 mm 0.00 in0.0 mm 0.00 in0.0 mm
12:11 AM 31.8°F-0.1°C 18.5°F-7.5°C 58% 7.0 mph SW11.3 kmh SW 20.0 mph32.2 kmh 30.00 in1015.9 mb 0.00 in0.0 mm 0.00 in0.0 mm 0.00 in0.0 mm
12:16 AM 31.6°F-0.2°C 18.3°F-7.6°C 58% 11.0 mph WSW17.7 kmh WSW 21.0 mph33.8 kmh 30.00 in1015.9 mb 0.00 in0.0 mm 0.00 in0.0 mm 0.00 in0.0 mm
12:21 AM 31.5°F-0.3°C 18.2°F-7.7°C 58% 11.0 mph SW17.7 kmh SW 21.0 mph33.8 kmh 30.01 in1016.3 mb 0.00 in0.0 mm 0.00 in0.0 mm 0.00 in0.0 mm
12:26 AM 31.4°F-0.3°C 18.1°F-7.7°C 58% 9.0 mph SW14.5 kmh SW 22.0 mph35.4 kmh 30.01 in1016.3 mb 0.00 in0.0 mm 0.00 in0.0 mm 0.00 in0.0 mm
12:31 AM 31.3°F-0.4°C 17.6°F-8.0°C 57% 12.0 mph WSW19.3 kmh WSW 22.0 mph35.4 kmh 30.01 in1016.3 mb 0.00 in0.0 mm 0.00 in0.0 mm 0.00 in0.0 mm
12:36 AM 31.2°F-0.4°C 17.1°F-8.3°C 56% 14.0 mph SW22.5 kmh SW 22.0 mph35.4 kmh 30.00 in1015.9 mb 0.00 in0.0 mm 0.00 in0.0 mm 0.00 in0.0 mm
12:41 AM 31.1°F-0.5°C 16.5°F-8.6°C 55% 11.0 mph WSW17.7 kmh WSW 22.0 mph35.4 kmh 30.00 in1015.9 mb 0.00 in0.0 mm 0.00 in0.0 mm 0.00 in0.0 mm
12:46 AM 31.0°F-0.6°C 16.5°F-8.6°C 55% 8.0 mph WSW12.9 kmh WSW 20.0 mph32.2 kmh 30.00 in1015.9 mb 0.00 in0.0 mm 0.00 in0.0 mm 0.00 in0.0 mm
12:51 AM 30.9°F-0.6°C 15.9°F-8.9°C 54% 13.0 mph WSW20.9 kmh WSW 20.0 mph32.2 kmh 30.01 in1016.3 mb 0.00 in0.0 mm 0.00 in0.0 mm 0.00 in0.0 mm
12:56 AM 30.9°F-0.6°C 15.5°F-9.2°C 53% 7.0 mph SSW11.3 kmh SSW 21.0 mph33.8 kmh 30.01 in1016.3 mb 0.00 in0.0 mm 0.00 in0.0 mm 0.00 in0.0 mm
01:01 AM 30.9°F-0.6°C 15.5°F-9.2°C 53% 5.0 mph WSW8.0 kmh WSW 21.0 mph33.8 kmh 30.01 in1016.3 mb 0.00 in0.0 mm 0.00 in0.0 mm 0.00 in0.0 mm
01:06 AM 30.8°F-0.7°C 15.8°F-9.0°C 54% 7.0 mph WSW11.3 kmh WSW 21.0 mph33.8 kmh 30.01 in1016.3 mb 0.00 in0.0 mm 0.00 in0.0 mm 0.00 in0.0 mm
01:11 AM 30.7°F-0.7°C 15.7°F-9.1°C 54% 5.0 mph SW8.0 kmh SW 21.0 mph33.8 kmh 30.01 in1016.3 mb 0.00 in0.0 mm 0.00 in0.0 mm 0.00 in0.0 mm
01:16 AM 30.6°F-0.8°C 15.6°F-9.1°C 54% 15.0 mph SW24.1 kmh SW 18.0 mph29.0 kmh 30.01 in1016.3 mb 0.00 in0.0 mm 0.00 in0.0 mm 0.00 in0.0 mm
01:21 AM 30.6°F-0.8°C 15.6°F-9.1°C 54% 10.0 mph WSW16.1 kmh WSW 18.0 mph29.0 kmh 30.02 in1016.6 mb 0.00 in0.0 mm 0.00 in0.0 mm 0.00 in0.0 mm
01:26 AM 30.5°F-0.8°C 15.1°F-9.4°C 53% 4.0 mph WSW6.4 kmh WSW 17.0 mph27.4 kmh 30.02 in1016.6 mb 0.00 in0.0 mm 0.00 in0.0 mm 0.00 in0.0 mm
01:31 AM 30.4°F-0.9°C 15.0°F-9.4°C 53% 7.0 mph WSW11.3 kmh WSW 17.0 mph27.4 kmh 30.02 in1016.6 mb 0.00 in0.0 mm 0.00 in0.0 mm 0.00 in0.0 mm
01:36 AM 30.2°F-1.0°C 15.3°F-9.3°C 54% 5.0 mph WSW8.0 kmh WSW 13.0 mph20.9 kmh 30.02 in1016.6 mb 0.00 in0.0 mm 0.00 in0.0 mm 0.00 in0.0 mm
01:41 AM 30.1°F-1.1°C 15.2°F-9.3°C 54% 9.0 mph SW14.5 kmh SW 13.0 mph20.9 kmh 30.02 in1016.6 mb 0.00 in0.0 mm 0.00 in0.0 mm 0.00 in0.0 mm
01:46 AM 30.1°F-1.1°C 14.7°F-9.6°C 53% 3.0 mph WSW4.8 kmh WSW 16.0 mph25.7 kmh 30.02 in1016.6 mb 0.00 in0.0 mm 0.00 in0.0 mm 0.00 in0.0 mm
01:51 AM 30.1°F-1.1°C 14.7°F-9.6°C 53% 9.0 mph SW14.5 kmh SW 16.0 mph25.7 kmh 30.02 in1016.6 mb 0.00 in0.0 mm 0.00 in0.0 mm 0.00 in0.0 mm
01:56 AM 30.0°F-1.1°C 14.6°F-9.7°C 53% 3.0 mph SW4.8 kmh SW 16.0 mph25.7 kmh 30.02 in1016.6 mb 0.00 in0.0 mm 0.00 in0.0 mm 0.00 in0.0 mm
02:01 AM 29.9°F-1.2°C 14.6°F-9.7°C 53% 10.0 mph WSW16.1 kmh WSW 16.0 mph25.7 kmh 30.02 in1016.6 mb 0.00 in0.0 mm 0.00 in0.0 mm 0.00 in0.0 mm
02:06 AM 29.9°F-1.2°C 14.6°F-9.7°C 53% 6.0 mph WSW9.7 kmh WSW 14.0 mph22.5 kmh 30.02 in1016.6 mb 0.00 in0.0 mm 0.00 in0.0 mm 0.00 in0.0 mm
02:11 AM 29.8°F-1.2°C 14.5°F-9.7°C 53% 5.0 mph SW8.0 kmh SW 14.0 mph22.5 kmh 30.02 in1016.6 mb 0.00 in0.0 mm 0.00 in0.0 mm 0.00 in0.0 mm
02:16 AM 29.8°F-1.2°C 14.5°F-9.7°C 53% 7.0 mph WSW11.3 kmh WSW 14.0 mph22.5 kmh 30.02 in1016.6 mb 0.00 in0.0 mm 0.00 in0.0 mm 0.00 in0.0 mm
02:21 AM 29.7°F-1.3°C 14.4°F-9.8°C 53% 6.0 mph SW9.7 kmh SW 14.0 mph22.5 kmh 30.02 in1016.6 mb 0.00 in0.0 mm 0.00 in0.0 mm 0.00 in0.0 mm
02:26 AM 29.7°F-1.3°C 14.4°F-9.8°C 53% 6.0 mph WSW9.7 kmh WSW 14.0 mph22.5 kmh 30.02 in1016.6 mb 0.00 in0.0 mm 0.00 in0.0 mm 0.00 in0.0 mm
02:31 AM 29.6°F-1.3°C 13.8°F-10.1°C 52% 4.0 mph WSW6.4 kmh WSW 14.0 mph22.5 kmh 30.02 in1016.6 mb 0.00 in0.0 mm 0.00 in0.0 mm 0.00 in0.0 mm
02:36 AM 29.6°F-1.3°C 13.8°F-10.1°C 52% 5.0 mph WSW8.0 kmh WSW 14.0 mph22.5 kmh 30.02 in1016.6 mb 0.00 in0.0 mm 0.00 in0.0 mm 0.00 in0.0 mm
02:41 AM 29.5°F-1.4°C 14.2°F-9.9°C 53% 3.0 mph WSW4.8 kmh WSW 11.0 mph17.7 kmh 30.02 in1016.6 mb 0.00 in0.0 mm 0.00 in0.0 mm 0.00 in0.0 mm
02:46 AM 29.4°F-1.4°C 14.1°F-9.9°C 53% 11.0 mph WSW17.7 kmh WSW 17.0 mph27.4 kmh 30.02 in1016.6 mb 0.00 in0.0 mm 0.00 in0.0 mm 0.00 in0.0 mm
02:51 AM 29.3°F-1.5°C 14.0°F-10.0°C 53% 9.0 mph WSW14.5 kmh WSW 17.0 mph27.4 kmh 30.03 in1016.9 mb 0.00 in0.0 mm 0.00 in0.0 mm 0.00 in0.0 mm
02:56 AM 29.2°F-1.6°C 13.9°F-10.1°C 53% 10.0 mph SW16.1 kmh SW 17.0 mph27.4 kmh 30.03 in1016.9 mb 0.00 in0.0 mm 0.00 in0.0 mm 0.00 in0.0 mm
03:01 AM 29.1°F-1.6°C 13.8°F-10.1°C 53% 9.0 mph WSW14.5 kmh WSW 17.0 mph27.4 kmh 30.03 in1016.9 mb 0.00 in0.0 mm 0.00 in0.0 mm 0.00 in0.0 mm
03:06 AM 29.1°F-1.6°C 13.8°F-10.1°C 53% 10.0 mph WSW16.1 kmh WSW 15.0 mph24.1 kmh 30.03 in1016.9 mb 0.00 in0.0 mm 0.00 in0.0 mm 0.00 in0.0 mm
03:11 AM 29.0°F-1.7°C 14.2°F-9.9°C 54% 10.0 mph SW16.1 kmh SW 16.0 mph25.7 kmh 30.02 in1016.6 mb 0.00 in0.0 mm 0.00 in0.0 mm 0.00 in0.0 mm
03:16 AM 29.0°F-1.7°C 14.2°F-9.9°C 54% 8.0 mph WSW12.9 kmh WSW 16.0 mph25.7 kmh 30.02 in1016.6 mb 0.00 in0.0 mm 0.00 in0.0 mm 0.00 in0.0 mm
03:21 AM 28.9°F-1.7°C 14.5°F-9.7°C 55% 8.0 mph SW12.9 kmh SW 16.0 mph25.7 kmh 30.03 in1016.9 mb 0.00 in0.0 mm 0.00 in0.0 mm 0.00 in0.0 mm
03:26 AM 28.8°F-1.8°C 14.4°F-9.8°C 55% 10.0 mph WSW16.1 kmh WSW 16.0 mph25.7 kmh 30.02 in1016.6 mb 0.00 in0.0 mm 0.00 in0.0 mm 0.00 in0.0 mm
03:31 AM 28.8°F-1.8°C 14.4°F-9.8°C 55% 11.0 mph SW17.7 kmh SW 14.0 mph22.5 kmh 30.02 in1016.6 mb 0.00 in0.0 mm 0.00 in0.0 mm 0.00 in0.0 mm
03:36 AM 28.7°F-1.8°C 14.7°F-9.6°C 56% 7.0 mph SW11.3 kmh SW 15.0 mph24.1 kmh 30.02 in1016.6 mb 0.00 in0.0 mm 0.00 in0.0 mm 0.00 in0.0 mm
03:41 AM 28.6°F-1.9°C 14.6°F-9.7°C 56% 14.0 mph WSW22.5 kmh WSW 15.0 mph24.1 kmh 30.02 in1016.6 mb 0.00 in0.0 mm 0.00 in0.0 mm 0.00 in0.0 mm
03:46 AM 28.6°F-1.9°C 14.6°F-9.7°C 56% 8.0 mph SW12.9 kmh SW 15.0 mph24.1 kmh 30.02 in1016.6 mb 0.00 in0.0 mm 0.00 in0.0 mm 0.00 in0.0 mm
03:51 AM 28.6°F-1.9°C 15.1°F-9.4°C 57% 8.0 mph WSW12.9 kmh WSW 15.0 mph24.1 kmh 30.02 in1016.6 mb 0.00 in0.0 mm 0.00 in0.0 mm 0.00 in0.0 mm
03:56 AM 28.5°F-1.9°C 15.0°F-9.4°C 57% 6.0 mph SW9.7 kmh SW 15.0 mph24.1 kmh 30.02 in1016.6 mb 0.00 in0.0 mm 0.00 in0.0 mm 0.00 in0.0 mm
04:01 AM 28.5°F-1.9°C 15.0°F-9.4°C 57% 9.0 mph SW14.5 kmh SW 15.0 mph24.1 kmh 30.02 in1016.6 mb 0.00 in0.0 mm 0.00 in0.0 mm 0.00 in0.0 mm
04:06 AM 28.4°F-2.0°C 14.9°F-9.5°C 57% 8.0 mph SW12.9 kmh SW 15.0 mph24.1 kmh 30.02 in1016.6 mb 0.00 in0.0 mm 0.00 in0.0 mm 0.00 in0.0 mm
04:11 AM 28.4°F-2.0°C 14.9°F-9.5°C 57% 7.0 mph SW11.3 kmh SW 15.0 mph24.1 kmh 30.02 in1016.6 mb 0.00 in0.0 mm 0.00 in0.0 mm 0.00 in0.0 mm
04:16 AM 28.4°F-2.0°C 15.3°F-9.3°C 58% 7.0 mph SW11.3 kmh SW 15.0 mph24.1 kmh 30.02 in1016.6 mb 0.00 in0.0 mm 0.00 in0.0 mm 0.00 in0.0 mm
04:21 AM 28.4°F-2.0°C 15.3°F-9.3°C 58% 9.0 mph SW14.5 kmh SW 15.0 mph24.1 kmh 30.02 in1016.6 mb 0.00 in0.0 mm 0.00 in0.0 mm 0.00 in0.0 mm
04:26 AM 28.4°F-2.0°C 15.3°F-9.3°C 58% 7.0 mph SW11.3 kmh SW 12.0 mph19.3 kmh 30.01 in1016.3 mb 0.00 in0.0 mm 0.00 in0.0 mm 0.00 in0.0 mm
04:31 AM 28.3°F-2.1°C 15.2°F-9.3°C 58% 8.0 mph S12.9 kmh S 12.0 mph19.3 kmh 30.01 in1016.3 mb 0.00 in0.0 mm 0.00 in0.0 mm 0.00 in0.0 mm
04:36 AM 28.3°F-2.1°C 15.2°F-9.3°C 58% 10.0 mph SW16.1 kmh SW 14.0 mph22.5 kmh 30.01 in1016.3 mb 0.00 in0.0 mm 0.00 in0.0 mm 0.00 in0.0 mm
04:41 AM 28.3°F-2.1°C 15.6°F-9.1°C 59% 10.0 mph SW16.1 kmh SW 17.0 mph27.4 kmh 30.01 in1016.3 mb 0.00 in0.0 mm 0.00 in0.0 mm 0.00 in0.0 mm
04:46 AM 28.3°F-2.1°C 15.6°F-9.1°C 59% 8.0 mph SW12.9 kmh SW 17.0 mph27.4 kmh 30.01 in1016.3 mb 0.00 in0.0 mm 0.00 in0.0 mm 0.00 in0.0 mm
04:51 AM 28.4°F-2.0°C 15.7°F-9.1°C 59% 7.0 mph SW11.3 kmh SW 18.0 mph29.0 kmh 30.01 in1016.3 mb 0.00 in0.0 mm 0.00 in0.0 mm 0.00 in0.0 mm
04:56 AM 28.4°F-2.0°C 15.7°F-9.1°C 59% 5.0 mph SW8.0 kmh SW 18.0 mph29.0 kmh 30.01 in1016.3 mb 0.00 in0.0 mm 0.00 in0.0 mm 0.00 in0.0 mm
05:01 AM 28.4°F-2.0°C 15.7°F-9.1°C 59% 9.0 mph SW14.5 kmh SW 18.0 mph29.0 kmh 30.01 in1016.3 mb 0.00 in0.0 mm 0.00 in0.0 mm 0.00 in0.0 mm
05:06 AM 28.4°F-2.0°C 15.7°F-9.1°C 59% 9.0 mph SW14.5 kmh SW 18.0 mph29.0 kmh 30.01 in1016.3 mb 0.00 in0.0 mm 0.00 in0.0 mm 0.00 in0.0 mm
05:11 AM 28.4°F-2.0°C 15.7°F-9.1°C 59% 9.0 mph SW14.5 kmh SW 16.0 mph25.7 kmh 30.01 in1016.3 mb 0.00 in0.0 mm 0.00 in0.0 mm 0.00 in0.0 mm
05:16 AM 28.5°F-1.9°C 15.8°F-9.0°C 59% 9.0 mph SSW14.5 kmh SSW 16.0 mph25.7 kmh 30.01 in1016.3 mb 0.00 in0.0 mm 0.00 in0.0 mm 0.00 in0.0 mm
05:21 AM 28.6°F-1.9°C 15.9°F-8.9°C 59% 5.0 mph SW8.0 kmh SW 16.0 mph25.7 kmh 30.01 in1016.3 mb 0.00 in0.0 mm 0.00 in0.0 mm 0.00 in0.0 mm
05:26 AM 28.6°F-1.9°C 15.9°F-8.9°C 59% 4.0 mph SW6.4 kmh SW 16.0 mph25.7 kmh 30.01 in1016.3 mb 0.00 in0.0 mm 0.00 in0.0 mm 0.00 in0.0 mm
05:31 AM 28.6°F-1.9°C 15.9°F-8.9°C 59% 4.0 mph S6.4 kmh S 16.0 mph25.7 kmh 30.01 in1016.3 mb 0.00 in0.0 mm 0.00 in0.0 mm 0.00 in0.0 mm
05:36 AM 28.7°F-1.8°C 16.0°F-8.9°C 59% 5.0 mph SSW8.0 kmh SSW 16.0 mph25.7 kmh 30.02 in1016.6 mb 0.00 in0.0 mm 0.00 in0.0 mm 0.00 in0.0 mm
05:41 AM 28.7°F-1.8°C 16.0°F-8.9°C 59% 6.0 mph SW9.7 kmh SW 16.0 mph25.7 kmh 30.02 in1016.6 mb 0.00 in0.0 mm 0.00 in0.0 mm 0.00 in0.0 mm
05:46 AM 28.8°F-1.8°C 16.1°F-8.8°C 59% 3.0 mph SSW4.8 kmh SSW 16.0 mph25.7 kmh 30.02 in1016.6 mb 0.00 in0.0 mm 0.00 in0.0 mm 0.00 in0.0 mm
05:51 AM 28.8°F-1.8°C 16.1°F-8.8°C 59% 4.0 mph SW6.4 kmh SW 11.0 mph17.7 kmh 30.02 in1016.6 mb 0.00 in0.0 mm 0.00 in0.0 mm 0.00 in0.0 mm
05:56 AM 28.8°F-1.8°C 16.1°F-8.8°C 59% 7.0 mph SW11.3 kmh SW 11.0 mph17.7 kmh 30.01 in1016.3 mb 0.00 in0.0 mm 0.00 in0.0 mm 0.00 in0.0 mm
06:01 AM 28.9°F-1.7°C 16.2°F-8.8°C 59% 5.0 mph SW8.0 kmh SW 13.0 mph20.9 kmh 30.01 in1016.3 mb 0.00 in0.0 mm 0.00 in0.0 mm 0.00 in0.0 mm
06:06 AM 28.9°F-1.7°C 16.2°F-8.8°C 59% 3.0 mph SW4.8 kmh SW 13.0 mph20.9 kmh 30.01 in1016.3 mb 0.00 in0.0 mm 0.00 in0.0 mm 0.00 in0.0 mm
06:11 AM 28.9°F-1.7°C 16.2°F-8.8°C 59% 3.0 mph WSW4.8 kmh WSW 13.0 mph20.9 kmh 30.01 in1016.3 mb 0.00 in0.0 mm 0.00 in0.0 mm 0.00 in0.0 mm
06:16 AM 28.9°F-1.7°C 16.2°F-8.8°C 59% 5.0 mph SW8.0 kmh SW 13.0 mph20.9 kmh 30.01 in1016.3 mb 0.00 in0.0 mm 0.00 in0.0 mm 0.00 in0.0 mm
06:21 AM 28.9°F-1.7°C 16.2°F-8.8°C 59% 5.0 mph SSW8.0 kmh SSW 11.0 mph17.7 kmh 30.01 in1016.3 mb 0.00 in0.0 mm 0.00 in0.0 mm 0.00 in0.0 mm
06:26 AM 29.0°F-1.7°C 16.3°F-8.7°C 59% 5.0 mph SW8.0 kmh SW 12.0 mph19.3 kmh 30.01 in1016.3 mb 0.00 in0.0 mm 0.00 in0.0 mm 0.00 in0.0 mm
06:31 AM 29.0°F-1.7°C 16.3°F-8.7°C 59% 9.0 mph SW14.5 kmh SW 12.0 mph19.3 kmh 30.01 in1016.3 mb 0.00 in0.0 mm 0.00 in0.0 mm 0.00 in0.0 mm
06:36 AM 29.0°F-1.7°C 16.3°F-8.7°C 59% 3.0 mph W4.8 kmh W 12.0 mph19.3 kmh 30.01 in1016.3 mb 0.00 in0.0 mm 0.00 in0.0 mm 0.00 in0.0 mm
06:41 AM 29.1°F-1.6°C 16.8°F-8.4°C 60% 7.0 mph SSW11.3 kmh SSW 14.0 mph22.5 kmh 30.00 in1015.9 mb 0.00 in0.0 mm 0.00 in0.0 mm 0.00 in0.0 mm
06:46 AM 29.2°F-1.6°C 16.8°F-8.4°C 60% 7.0 mph SW11.3 kmh SW 18.0 mph29.0 kmh 30.01 in1016.3 mb 0.00 in0.0 mm 0.00 in0.0 mm 0.00 in0.0 mm
06:51 AM 29.2°F-1.6°C 17.2°F-8.2°C 61% 5.0 mph WSW8.0 kmh WSW 19.0 mph30.6 kmh 30.01 in1016.3 mb 0.00 in0.0 mm 0.00 in0.0 mm 0.00 in0.0 mm
06:56 AM 29.3°F-1.5°C 17.3°F-8.2°C 61% 10.0 mph SSW16.1 kmh SSW 19.0 mph30.6 kmh 30.00 in1015.9 mb 0.00 in0.0 mm 0.00 in0.0 mm 0.00 in0.0 mm
07:01 AM 29.4°F-1.4°C 17.8°F-7.9°C 62% 11.0 mph SSW17.7 kmh SSW 19.0 mph30.6 kmh 30.00 in1015.9 mb 0.00 in0.0 mm 0.00 in0.0 mm 0.00 in0.0 mm
07:06 AM 29.5°F-1.4°C 17.9°F-7.8°C 62% 8.0 mph SSW12.9 kmh SSW 20.0 mph32.2 kmh 30.00 in1015.9 mb 0.00 in0.0 mm 0.00 in0.0 mm 0.00 in0.0 mm
07:11 AM 29.6°F-1.3°C 18.0°F-7.8°C 62% 8.0 mph SSW12.9 kmh SSW 20.0 mph32.2 kmh 29.99 in1015.6 mb 0.00 in0.0 mm 0.00 in0.0 mm 0.00 in0.0 mm
07:16 AM 29.7°F-1.3°C 18.1°F-7.7°C 62% 7.0 mph SSW11.3 kmh SSW 20.0 mph32.2 kmh 30.00 in1015.9 mb 0.00 in0.0 mm 0.00 in0.0 mm 0.00 in0.0 mm
07:21 AM 29.8°F-1.2°C 18.2°F-7.7°C 62% 4.0 mph SSW6.4 kmh SSW 20.0 mph32.2 kmh 30.00 in1015.9 mb 0.00 in0.0 mm 0.00 in0.0 mm 0.00 in0.0 mm
07:26 AM 29.8°F-1.2°C 18.2°F-7.7°C 62% 6.0 mph SW9.7 kmh SW 20.0 mph32.2 kmh 30.00 in1015.9 mb 0.00 in0.0 mm 0.00 in0.0 mm 0.00 in0.0 mm
07:31 AM 29.9°F-1.2°C 18.3°F-7.6°C 62% 7.0 mph S11.3 kmh S 20.0 mph32.2 kmh 30.00 in1015.9 mb 0.00 in0.0 mm 0.00 in0.0 mm 0.00 in0.0 mm
07:36 AM 29.9°F-1.2°C 18.3°F-7.6°C 62% 7.0 mph SSW11.3 kmh SSW 20.0 mph32.2 kmh 30.01 in1016.3 mb 0.00 in0.0 mm 0.00 in0.0 mm 0.00 in0.0 mm
07:41 AM 29.9°F-1.2°C 18.3°F-7.6°C 62% 4.0 mph WSW6.4 kmh WSW 15.0 mph24.1 kmh 30.00 in1015.9 mb 0.00 in0.0 mm 0.00 in0.0 mm 0.00 in0.0 mm
07:46 AM 29.9°F-1.2°C 18.3°F-7.6°C 62% 6.0 mph SW9.7 kmh SW 15.0 mph24.1 kmh 30.00 in1015.9 mb 0.00 in0.0 mm 0.00 in0.0 mm 0.00 in0.0 mm
07:51 AM 30.0°F-1.1°C 18.4°F-7.6°C 62% 5.0 mph SW8.0 kmh SW 15.0 mph24.1 kmh 30.00 in1015.9 mb 0.00 in0.0 mm 0.00 in0.0 mm 0.00 in0.0 mm
07:56 AM 30.1°F-1.1°C 18.5°F-7.5°C 62% 9.0 mph SW14.5 kmh SW 15.0 mph24.1 kmh 30.00 in1015.9 mb 0.00 in0.0 mm 0.00 in0.0 mm 0.00 in0.0 mm
08:01 AM 30.2°F-1.0°C 18.2°F-7.7°C 61% 8.0 mph SW12.9 kmh SW 14.0 mph22.5 kmh 29.99 in1015.6 mb 0.00 in0.0 mm 0.00 in0.0 mm 0.00 in0.0 mm
08:06 AM 30.5°F-0.8°C 18.5°F-7.5°C 61% 7.0 mph S11.3 kmh S 14.0 mph22.5 kmh 29.99 in1015.6 mb 0.00 in0.0 mm 0.00 in0.0 mm 0.00 in0.0 mm
08:11 AM 30.6°F-0.8°C 18.2°F-7.7°C 60% 12.0 mph SW19.3 kmh SW 14.0 mph22.5 kmh 29.99 in1015.6 mb 0.00 in0.0 mm 0.00 in0.0 mm 0.00 in0.0 mm
08:16 AM 30.9°F-0.6°C 18.4°F-7.6°C 60% 5.0 mph SW8.0 kmh SW 18.0 mph29.0 kmh 30.00 in1015.9 mb 0.00 in0.0 mm 0.00 in0.0 mm 0.00 in0.0 mm
08:21 AM 31.0°F-0.6°C 18.5°F-7.5°C 60% 3.0 mph WSW4.8 kmh WSW 18.0 mph29.0 kmh 30.00 in1015.9 mb 0.00 in0.0 mm 0.00 in0.0 mm 0.00 in0.0 mm
08:26 AM 31.2°F-0.4°C 18.7°F-7.4°C 60% 7.0 mph SW11.3 kmh SW 18.0 mph29.0 kmh 30.00 in1015.9 mb 0.00 in0.0 mm 0.00 in0.0 mm 0.00 in0.0 mm
08:31 AM 31.4°F-0.3°C 18.5°F-7.5°C 59% 7.0 mph WSW11.3 kmh WSW 18.0 mph29.0 kmh 30.00 in1015.9 mb 0.00 in0.0 mm 0.00 in0.0 mm 0.00 in0.0 mm
08:36 AM 31.5°F-0.3°C 18.6°F-7.4°C 59% 5.0 mph WSW8.0 kmh WSW 18.0 mph29.0 kmh 30.00 in1015.9 mb 0.00 in0.0 mm 0.00 in0.0 mm 0.00 in0.0 mm
08:41 AM 31.6°F-0.2°C 18.7°F-7.4°C 59% 8.0 mph WSW12.9 kmh WSW 18.0 mph29.0 kmh 30.00 in1015.9 mb 0.00 in0.0 mm 0.00 in0.0 mm 0.00 in0.0 mm
08:46 AM 31.8°F-0.1°C 18.5°F-7.5°C 58% 5.0 mph WSW8.0 kmh WSW 18.0 mph29.0 kmh 30.00 in1015.9 mb 0.00 in0.0 mm 0.00 in0.0 mm 0.00 in0.0 mm
08:51 AM 31.9°F-0.1°C 18.6°F-7.4°C 58% 9.0 mph SW14.5 kmh SW 14.0 mph22.5 kmh 30.00 in1015.9 mb 0.00 in0.0 mm 0.00 in0.0 mm 0.00 in0.0 mm
08:56 AM 32.1°F0.1°C 18.8°F-7.3°C 58% 9.0 mph WSW14.5 kmh WSW 17.0 mph27.4 kmh 30.00 in1015.9 mb 0.00 in0.0 mm 0.00 in0.0 mm 0.00 in0.0 mm
09:01 AM 32.3°F0.2°C 18.9°F-7.3°C 58% 4.0 mph SW6.4 kmh SW 17.0 mph27.4 kmh 30.00 in1015.9 mb 0.00 in0.0 mm 0.00 in0.0 mm 0.00 in0.0 mm
09:06 AM 32.5°F0.3°C 19.1°F-7.2°C 58% 4.0 mph WSW6.4 kmh WSW 17.0 mph27.4 kmh 30.00 in1015.9 mb 0.00 in0.0 mm 0.00 in0.0 mm 0.00 in0.0 mm
09:11 AM 32.6°F0.3°C 19.2°F-7.1°C 58% 6.0 mph SW9.7 kmh SW 17.0 mph27.4 kmh 30.00 in1015.9 mb 0.00 in0.0 mm 0.00 in0.0 mm 0.00 in0.0 mm
09:16 AM 32.7°F0.4°C 19.3°F-7.1°C 58% 7.0 mph SW11.3 kmh SW 16.0 mph25.7 kmh 30.00 in1015.9 mb 0.00 in0.0 mm 0.00 in0.0 mm 0.00 in0.0 mm
09:21 AM 32.9°F0.5°C 19.5°F-6.9°C 58% 10.0 mph S16.1 kmh S 16.0 mph25.7 kmh 30.00 in1015.9 mb 0.00 in0.0 mm 0.00 in0.0 mm 0.00 in0.0 mm
09:26 AM 33.1°F0.6°C 19.3°F-7.1°C 57% 4.0 mph SSW6.4 kmh SSW 15.0 mph24.1 kmh 30.00 in1015.9 mb 0.00 in0.0 mm 0.00 in0.0 mm 0.00 in0.0 mm
09:31 AM 33.3°F0.7°C 19.5°F-6.9°C 57% 5.0 mph SW8.0 kmh SW 15.0 mph24.1 kmh 30.01 in1016.3 mb 0.00 in0.0 mm 0.00 in0.0 mm 0.00 in0.0 mm
09:36 AM 33.5°F0.8°C 19.2°F-7.1°C 56% 6.0 mph SW9.7 kmh SW 15.0 mph24.1 kmh 30.01 in1016.3 mb 0.00 in0.0 mm 0.00 in0.0 mm 0.00 in0.0 mm
09:41 AM 33.7°F0.9°C 19.4°F-7.0°C 56% 9.0 mph WSW14.5 kmh WSW 15.0 mph24.1 kmh 30.01 in1016.3 mb 0.00 in0.0 mm 0.00 in0.0 mm 0.00 in0.0 mm
09:46 AM 33.8°F1.0°C 19.5°F-6.9°C 56% 7.0 mph SW11.3 kmh SW 15.0 mph24.1 kmh 30.00 in1015.9 mb 0.00 in0.0 mm 0.00 in0.0 mm 0.00 in0.0 mm
09:51 AM 34.0°F1.1°C 19.7°F-6.8°C 56% 5.0 mph SW8.0 kmh SW 15.0 mph24.1 kmh 30.00 in1015.9 mb 0.00 in0.0 mm 0.00 in0.0 mm 0.00 in0.0 mm
09:56 AM 34.1°F1.2°C 19.8°F-6.8°C 56% 7.0 mph SW11.3 kmh SW 14.0 mph22.5 kmh 30.00 in1015.9 mb 0.00 in0.0 mm 0.00 in0.0 mm 0.00 in0.0 mm
10:01 AM 34.3°F1.3°C 20.0°F-6.7°C 56% 4.0 mph SW6.4 kmh SW 14.0 mph22.5 kmh 30.01 in1016.3 mb 0.00 in0.0 mm 0.00 in0.0 mm 0.00 in0.0 mm
10:06 AM 34.4°F1.3°C 20.1°F-6.6°C 56% 3.0 mph SW4.8 kmh SW 14.0 mph22.5 kmh 30.01 in1016.3 mb 0.00 in0.0 mm 0.00 in0.0 mm 0.00 in0.0 mm
10:11 AM 34.4°F1.3°C 20.1°F-6.6°C 56% 5.0 mph SW8.0 kmh SW 14.0 mph22.5 kmh 30.00 in1015.9 mb 0.00 in0.0 mm 0.00 in0.0 mm 0.00 in0.0 mm
10:16 AM 34.5°F1.4°C 20.6°F-6.3°C 57% 4.0 mph WSW6.4 kmh WSW 19.0 mph30.6 kmh 30.00 in1015.9 mb 0.00 in0.0 mm 0.00 in0.0 mm 0.00 in0.0 mm
10:21 AM 34.4°F1.3°C 20.1°F-6.6°C 56% 7.0 mph SW11.3 kmh SW 19.0 mph30.6 kmh 30.00 in1015.9 mb 0.00 in0.0 mm 0.00 in0.0 mm 0.00 in0.0 mm
10:26 AM 34.4°F1.3°C 20.5°F-6.4°C 57% 5.0 mph SSW8.0 kmh SSW 19.0 mph30.6 kmh 30.00 in1015.9 mb 0.00 in0.0 mm 0.00 in0.0 mm 0.00 in0.0 mm
10:31 AM 34.4°F1.3°C 20.5°F-6.4°C 57% 9.0 mph SW14.5 kmh SW 19.0 mph30.6 kmh 30.00 in1015.9 mb 0.00 in0.0 mm 0.00 in0.0 mm 0.00 in0.0 mm
10:36 AM 34.4°F1.3°C 20.5°F-6.4°C 57% 14.0 mph S22.5 kmh S 18.0 mph29.0 kmh 30.00 in1015.9 mb 0.00 in0.0 mm 0.00 in0.0 mm 0.00 in0.0 mm
10:41 AM 34.4°F1.3°C 20.9°F-6.2°C 58% 8.0 mph SSW12.9 kmh SSW 18.0 mph29.0 kmh 30.00 in1015.9 mb 0.00 in0.0 mm 0.00 in0.0 mm 0.00 in0.0 mm
10:46 AM 34.4°F1.3°C 20.5°F-6.4°C 57% 15.0 mph SSW24.1 kmh SSW 21.0 mph33.8 kmh 30.00 in1015.9 mb 0.00 in0.0 mm 0.00 in0.0 mm 0.00 in0.0 mm
10:51 AM 34.5°F1.4°C 20.6°F-6.3°C 57% 9.0 mph SSW14.5 kmh SSW 21.0 mph33.8 kmh 29.99 in1015.6 mb 0.00 in0.0 mm 0.00 in0.0 mm 0.00 in0.0 mm
10:56 AM 34.6°F1.4°C 20.7°F-6.3°C 57% 11.0 mph SSW17.7 kmh SSW 21.0 mph33.8 kmh 29.99 in1015.6 mb 0.00 in0.0 mm 0.00 in0.0 mm 0.00 in0.0 mm
11:01 AM 34.7°F1.5°C 21.2°F-6.0°C 58% 9.0 mph SSW14.5 kmh SSW 21.0 mph33.8 kmh 29.99 in1015.6 mb 0.00 in0.0 mm 0.00 in0.0 mm 0.00 in0.0 mm
11:06 AM 34.8°F1.6°C 21.3°F-5.9°C 58% 6.0 mph SW9.7 kmh SW 21.0 mph33.8 kmh 29.99 in1015.6 mb 0.00 in0.0 mm 0.00 in0.0 mm 0.00 in0.0 mm
11:11 AM 34.9°F1.6°C 21.4°F-5.9°C 58% 9.0 mph SW14.5 kmh SW 21.0 mph33.8 kmh 29.99 in1015.6 mb 0.00 in0.0 mm 0.00 in0.0 mm 0.00 in0.0 mm
11:16 AM 35.0°F1.7°C 21.0°F-6.1°C 57% 12.0 mph S19.3 kmh S 21.0 mph33.8 kmh 29.98 in1015.2 mb 0.00 in0.0 mm 0.00 in0.0 mm 0.00 in0.0 mm
11:21 AM 35.0°F1.7°C 21.5°F-5.8°C 58% 6.0 mph SSW9.7 kmh SSW 21.0 mph33.8 kmh 29.98 in1015.2 mb 0.00 in0.0 mm 0.00 in0.0 mm 0.00 in0.0 mm
11:26 AM 35.1°F1.7°C 21.6°F-5.8°C 58% 4.0 mph SW6.4 kmh SW 20.0 mph32.2 kmh 29.98 in1015.2 mb 0.00 in0.0 mm 0.00 in0.0 mm 0.00 in0.0 mm
11:31 AM 35.2°F1.8°C 21.7°F-5.7°C 58% 9.0 mph W14.5 kmh W 20.0 mph32.2 kmh 29.98 in1015.2 mb 0.00 in0.0 mm 0.00 in0.0 mm 0.00 in0.0 mm
11:36 AM 35.3°F1.8°C 21.8°F-5.7°C 58% 4.0 mph SW6.4 kmh SW 21.0 mph33.8 kmh 29.98 in1015.2 mb 0.00 in0.0 mm 0.00 in0.0 mm 0.00 in0.0 mm
11:41 AM 35.6°F2.0°C 21.6°F-5.8°C 57% 5.0 mph SW8.0 kmh SW 21.0 mph33.8 kmh 29.97 in1014.9 mb 0.00 in0.0 mm 0.00 in0.0 mm 0.00 in0.0 mm
11:46 AM 35.8°F2.1°C 21.8°F-5.7°C 57% 8.0 mph WSW12.9 kmh WSW 23.0 mph37.0 kmh 29.96 in1014.6 mb 0.00 in0.0 mm 0.00 in0.0 mm 0.00 in0.0 mm
11:51 AM 36.1°F2.3°C 21.6°F-5.8°C 56% 7.0 mph SSW11.3 kmh SSW 23.0 mph37.0 kmh 29.96 in1014.6 mb 0.00 in0.0 mm 0.00 in0.0 mm 0.00 in0.0 mm
11:56 AM 36.4°F2.4°C 21.9°F-5.6°C 56% 8.0 mph SSW12.9 kmh SSW 23.0 mph37.0 kmh 29.96 in1014.6 mb 0.00 in0.0 mm 0.00 in0.0 mm 0.00 in0.0 mm
12:01 PM 36.6°F2.6°C 22.1°F-5.5°C 56% 7.0 mph SSW11.3 kmh SSW 23.0 mph37.0 kmh 29.96 in1014.6 mb 0.00 in0.0 mm 0.00 in0.0 mm 0.00 in0.0 mm
12:06 PM 36.9°F2.7°C 22.4°F-5.3°C 56% 4.0 mph WSW6.4 kmh WSW 21.0 mph33.8 kmh 29.95 in1014.2 mb 0.00 in0.0 mm 0.00 in0.0 mm 0.00 in0.0 mm
12:11 PM 37.3°F2.9°C 22.8°F-5.1°C 56% 3.0 mph SW4.8 kmh SW 21.0 mph33.8 kmh 29.95 in1014.2 mb 0.00 in0.0 mm 0.00 in0.0 mm 0.00 in0.0 mm
12:16 PM 37.5°F3.1°C 22.9°F-5.1°C 56% 6.0 mph SW9.7 kmh SW 14.0 mph22.5 kmh 29.95 in1014.2 mb 0.00 in0.0 mm 0.00 in0.0 mm 0.00 in0.0 mm
12:21 PM 37.7°F3.2°C 22.7°F-5.2°C 55% 11.0 mph WSW17.7 kmh WSW 16.0 mph25.7 kmh 29.94 in1013.9 mb 0.00 in0.0 mm 0.00 in0.0 mm 0.00 in0.0 mm
12:26 PM 37.8°F3.2°C 22.3°F-5.4°C 54% 10.0 mph WSW16.1 kmh WSW 21.0 mph33.8 kmh 29.94 in1013.9 mb 0.00 in0.0 mm 0.00 in0.0 mm 0.00 in0.0 mm
12:31 PM 38.0°F3.3°C 22.5°F-5.3°C 54% 3.0 mph WSW4.8 kmh WSW 21.0 mph33.8 kmh 29.93 in1013.5 mb 0.00 in0.0 mm 0.00 in0.0 mm 0.00 in0.0 mm
12:36 PM 38.5°F3.6°C 23.0°F-5.0°C 54% 7.0 mph SW11.3 kmh SW 21.0 mph33.8 kmh 29.93 in1013.5 mb 0.00 in0.0 mm 0.00 in0.0 mm 0.00 in0.0 mm
12:41 PM 38.7°F3.7°C 23.2°F-4.9°C 54% 3.0 mph SW4.8 kmh SW 21.0 mph33.8 kmh 29.93 in1013.5 mb 0.00 in0.0 mm 0.00 in0.0 mm 0.00 in0.0 mm
12:46 PM 38.7°F3.7°C 22.7°F-5.2°C 53% 6.0 mph SW9.7 kmh SW 13.0 mph20.9 kmh 29.93 in1013.5 mb 0.00 in0.0 mm 0.00 in0.0 mm 0.00 in0.0 mm
12:51 PM 38.7°F3.7°C 22.7°F-5.2°C 53% 9.0 mph SSW14.5 kmh SSW 16.0 mph25.7 kmh 29.93 in1013.5 mb 0.00 in0.0 mm 0.00 in0.0 mm 0.00 in0.0 mm
12:56 PM 38.7°F3.7°C 22.7°F-5.2°C 53% 7.0 mph SW11.3 kmh SW 19.0 mph30.6 kmh 29.93 in1013.5 mb 0.00 in0.0 mm 0.00 in0.0 mm 0.00 in0.0 mm
01:01 PM 38.8°F3.8°C 22.8°F-5.1°C 53% 8.0 mph S12.9 kmh S 19.0 mph30.6 kmh 29.93 in1013.5 mb 0.00 in0.0 mm 0.00 in0.0 mm 0.00 in0.0 mm
01:06 PM 39.0°F3.9°C 22.5°F-5.3°C 52% 6.0 mph SW9.7 kmh SW 19.0 mph30.6 kmh 29.92 in1013.2 mb 0.00 in0.0 mm 0.00 in0.0 mm 0.00 in0.0 mm
01:11 PM 39.1°F3.9°C 22.6°F-5.2°C 52% 6.0 mph S9.7 kmh S 19.0 mph30.6 kmh 29.92 in1013.2 mb 0.00 in0.0 mm 0.00 in0.0 mm 0.00 in0.0 mm
01:16 PM 39.2°F4.0°C 22.7°F-5.2°C 52% 9.0 mph SW14.5 kmh SW 18.0 mph29.0 kmh 29.92 in1013.2 mb 0.00 in0.0 mm 0.00 in0.0 mm 0.00 in0.0 mm
01:21 PM 39.3°F4.1°C 22.3°F-5.4°C 51% 6.0 mph SW9.7 kmh SW 18.0 mph29.0 kmh 29.92 in1013.2 mb 0.00 in0.0 mm 0.00 in0.0 mm 0.00 in0.0 mm
01:26 PM 39.2°F4.0°C 22.2°F-5.4°C 51% 6.0 mph WSW9.7 kmh WSW 18.0 mph29.0 kmh 29.92 in1013.2 mb 0.00 in0.0 mm 0.00 in0.0 mm 0.00 in0.0 mm
01:31 PM 39.2°F4.0°C 22.2°F-5.4°C 51% 9.0 mph SW14.5 kmh SW 20.0 mph32.2 kmh 29.92 in1013.2 mb 0.00 in0.0 mm 0.00 in0.0 mm 0.00 in0.0 mm
01:36 PM 39.1°F3.9°C 22.6°F-5.2°C 52% 5.0 mph SW8.0 kmh SW 21.0 mph33.8 kmh 29.92 in1013.2 mb 0.00 in0.0 mm 0.00 in0.0 mm 0.00 in0.0 mm
01:41 PM 39.3°F4.1°C 22.8°F-5.1°C 52% 4.0 mph SW6.4 kmh SW 21.0 mph33.8 kmh 29.92 in1013.2 mb 0.00 in0.0 mm 0.00 in0.0 mm 0.00 in0.0 mm
01:46 PM 39.6°F4.2°C 23.1°F-4.9°C 52% 7.0 mph SSW11.3 kmh SSW 21.0 mph33.8 kmh 29.92 in1013.2 mb 0.00 in0.0 mm 0.00 in0.0 mm 0.00 in0.0 mm
01:51 PM 40.2°F4.6°C 23.1°F-4.9°C 51% 6.0 mph SW9.7 kmh SW 21.0 mph33.8 kmh 29.92 in1013.2 mb 0.00 in0.0 mm 0.00 in0.0 mm 0.00 in0.0 mm
01:56 PM 40.4°F4.7°C 23.3°F-4.8°C 51% 7.0 mph SW11.3 kmh SW 16.0 mph25.7 kmh 29.92 in1013.2 mb 0.00 in0.0 mm 0.00 in0.0 mm 0.00 in0.0 mm
02:01 PM 40.4°F4.7°C 23.3°F-4.8°C 51% 7.0 mph SSW11.3 kmh SSW 16.0 mph25.7 kmh 29.92 in1013.2 mb 0.00 in0.0 mm 0.00 in0.0 mm 0.00 in0.0 mm
02:06 PM 40.4°F4.7°C 23.8°F-4.6°C 52% 8.0 mph SW12.9 kmh SW 15.0 mph24.1 kmh 29.91 in1012.9 mb 0.00 in0.0 mm 0.00 in0.0 mm 0.00 in0.0 mm
02:11 PM 40.3°F4.6°C 23.2°F-4.9°C 51% 7.0 mph SW11.3 kmh SW 19.0 mph30.6 kmh 29.92 in1013.2 mb 0.00 in0.0 mm 0.00 in0.0 mm 0.00 in0.0 mm
02:16 PM 40.1°F4.5°C 22.1°F-5.5°C 49% 9.0 mph SW14.5 kmh SW 19.0 mph30.6 kmh 29.92 in1013.2 mb 0.00 in0.0 mm 0.00 in0.0 mm 0.00 in0.0 mm
02:21 PM 39.9°F4.4°C 22.4°F-5.3°C 50% 13.0 mph SW20.9 kmh SW 19.0 mph30.6 kmh 29.92 in1013.2 mb 0.00 in0.0 mm 0.00 in0.0 mm 0.00 in0.0 mm
02:26 PM 40.1°F4.5°C 22.6°F-5.2°C 50% 8.0 mph SW12.9 kmh SW 19.0 mph30.6 kmh 29.92 in1013.2 mb 0.00 in0.0 mm 0.00 in0.0 mm 0.00 in0.0 mm
02:31 PM 40.0°F4.4°C 22.0°F-5.6°C 49% 6.0 mph SW9.7 kmh SW 18.0 mph29.0 kmh 29.92 in1013.2 mb 0.00 in0.0 mm 0.00 in0.0 mm 0.00 in0.0 mm
02:36 PM 39.8°F4.3°C 22.8°F-5.1°C 51% 11.0 mph SW17.7 kmh SW 19.0 mph30.6 kmh 29.92 in1013.2 mb 0.00 in0.0 mm 0.00 in0.0 mm 0.00 in0.0 mm
02:41 PM 39.7°F4.3°C 22.2°F-5.4°C 50% 11.0 mph WSW17.7 kmh WSW 19.0 mph30.6 kmh 29.92 in1013.2 mb 0.00 in0.0 mm 0.00 in0.0 mm 0.00 in0.0 mm
02:46 PM 39.5°F4.2°C 22.5°F-5.3°C 51% 18.0 mph WSW29.0 kmh WSW 19.0 mph30.6 kmh 29.92 in1013.2 mb 0.00 in0.0 mm 0.00 in0.0 mm 0.00 in0.0 mm
02:51 PM 39.6°F4.2°C 22.6°F-5.2°C 51% 12.0 mph WSW19.3 kmh WSW 19.0 mph30.6 kmh 29.92 in1013.2 mb 0.00 in0.0 mm 0.00 in0.0 mm 0.00 in0.0 mm
02:56 PM 39.7°F4.3°C 22.7°F-5.2°C 51% 5.0 mph SW8.0 kmh SW 18.0 mph29.0 kmh 29.92 in1013.2 mb 0.00 in0.0 mm 0.00 in0.0 mm 0.00 in0.0 mm
03:01 PM 39.7°F4.3°C 22.7°F-5.2°C 51% 11.0 mph WSW17.7 kmh WSW 19.0 mph30.6 kmh 29.92 in1013.2 mb 0.00 in0.0 mm 0.00 in0.0 mm 0.00 in0.0 mm
03:06 PM 39.7°F4.3°C 23.2°F-4.9°C 52% 5.0 mph SW8.0 kmh SW 19.0 mph30.6 kmh 29.92 in1013.2 mb 0.00 in0.0 mm 0.00 in0.0 mm 0.00 in0.0 mm
03:11 PM 39.7°F4.3°C 22.7°F-5.2°C 51% 10.0 mph SW16.1 kmh SW 19.0 mph30.6 kmh 29.92 in1013.2 mb 0.00 in0.0 mm 0.00 in0.0 mm 0.00 in0.0 mm
03:16 PM 39.6°F4.2°C 23.1°F-4.9°C 52% 8.0 mph WSW12.9 kmh WSW 19.0 mph30.6 kmh 29.93 in1013.5 mb 0.00 in0.0 mm 0.00 in0.0 mm 0.00 in0.0 mm
04:26 PM 39.0°F3.9°C 22.5°F-5.3°C 52% 6.0 mph WSW9.7 kmh WSW 21.0 mph33.8 kmh 29.94 in1013.9 mb 0.00 in0.0 mm 0.00 in0.0 mm 0.00 in0.0 mm
04:31 PM 39.0°F3.9°C 23.0°F-5.0°C 53% 9.0 mph WSW14.5 kmh WSW 21.0 mph33.8 kmh 29.94 in1013.9 mb 0.00 in0.0 mm 0.00 in0.0 mm 0.00 in0.0 mm
04:36 PM 38.9°F3.8°C 22.4°F-5.3°C 52% 13.0 mph WSW20.9 kmh WSW 21.0 mph33.8 kmh 29.94 in1013.9 mb 0.00 in0.0 mm 0.00 in0.0 mm 0.00 in0.0 mm
04:41 PM 38.9°F3.8°C 22.4°F-5.3°C 52% 11.0 mph SW17.7 kmh SW 19.0 mph30.6 kmh 29.95 in1014.2 mb 0.00 in0.0 mm 0.00 in0.0 mm 0.00 in0.0 mm
04:46 PM 38.8°F3.8°C 22.8°F-5.1°C 53% 6.0 mph SW9.7 kmh SW 19.0 mph30.6 kmh 29.94 in1013.9 mb 0.00 in0.0 mm 0.00 in0.0 mm 0.00 in0.0 mm
04:51 PM 38.8°F3.8°C 22.8°F-5.1°C 53% 7.0 mph WSW11.3 kmh WSW 16.0 mph25.7 kmh 29.94 in1013.9 mb 0.00 in0.0 mm 0.00 in0.0 mm 0.00 in0.0 mm
04:56 PM 38.7°F3.7°C 22.7°F-5.2°C 53% 12.0 mph SW19.3 kmh SW 16.0 mph25.7 kmh 29.95 in1014.2 mb 0.00 in0.0 mm 0.00 in0.0 mm 0.00 in0.0 mm
05:01 PM 38.6°F3.7°C 22.1°F-5.5°C 52% 6.0 mph W9.7 kmh W 24.0 mph38.6 kmh 29.95 in1014.2 mb 0.00 in0.0 mm 0.00 in0.0 mm 0.00 in0.0 mm
05:06 PM 38.4°F3.6°C 22.4°F-5.3°C 53% 6.0 mph WSW9.7 kmh WSW 24.0 mph38.6 kmh 29.95 in1014.2 mb 0.00 in0.0 mm 0.00 in0.0 mm 0.00 in0.0 mm
05:11 PM 38.2°F3.4°C 22.2°F-5.4°C 53% 11.0 mph WSW17.7 kmh WSW 24.0 mph38.6 kmh 29.95 in1014.2 mb 0.00 in0.0 mm 0.00 in0.0 mm 0.00 in0.0 mm
05:16 PM 38.1°F3.4°C 22.1°F-5.5°C 53% 10.0 mph WSW16.1 kmh WSW 24.0 mph38.6 kmh 29.95 in1014.2 mb 0.00 in0.0 mm 0.00 in0.0 mm 0.00 in0.0 mm
05:21 PM 37.9°F3.3°C 22.0°F-5.6°C 53% 12.0 mph WSW19.3 kmh WSW 14.0 mph22.5 kmh 29.95 in1014.2 mb 0.00 in0.0 mm 0.00 in0.0 mm 0.00 in0.0 mm
05:26 PM 37.8°F3.2°C 21.9°F-5.6°C 53% 4.0 mph WSW6.4 kmh WSW 14.0 mph22.5 kmh 29.95 in1014.2 mb 0.00 in0.0 mm 0.00 in0.0 mm 0.00 in0.0 mm
05:31 PM 37.6°F3.1°C 21.7°F-5.7°C 53% 6.0 mph WSW9.7 kmh WSW 14.0 mph22.5 kmh 29.96 in1014.6 mb 0.00 in0.0 mm 0.00 in0.0 mm 0.00 in0.0 mm
05:36 PM 37.4°F3.0°C 21.5°F-5.8°C 53% 5.0 mph SW8.0 kmh SW 14.0 mph22.5 kmh 29.96 in1014.6 mb 0.00 in0.0 mm 0.00 in0.0 mm 0.00 in0.0 mm
05:41 PM 37.3°F2.9°C 21.4°F-5.9°C 53% 9.0 mph W14.5 kmh W 18.0 mph29.0 kmh 29.96 in1014.6 mb 0.00 in0.0 mm 0.00 in0.0 mm 0.00 in0.0 mm
05:46 PM 37.1°F2.8°C 21.2°F-6.0°C 53% 5.0 mph WSW8.0 kmh WSW 18.0 mph29.0 kmh 29.96 in1014.6 mb 0.00 in0.0 mm 0.00 in0.0 mm 0.00 in0.0 mm
05:51 PM 36.9°F2.7°C 21.0°F-6.1°C 53% 7.0 mph WSW11.3 kmh WSW 18.0 mph29.0 kmh 29.96 in1014.6 mb 0.00 in0.0 mm 0.00 in0.0 mm 0.00 in0.0 mm
06:12 PM 36.3°F2.4°C 20.9°F-6.2°C 54% 10.0 mph WSW16.1 kmh WSW 12.0 mph19.3 kmh 29.97 in1014.9 mb 0.00 in0.0 mm 0.00 in0.0 mm 0.00 in0.0 mm
06:17 PM 36.3°F2.4°C 20.5°F-6.4°C 53% 5.0 mph WSW8.0 kmh WSW 18.0 mph29.0 kmh 29.97 in1014.9 mb 0.00 in0.0 mm 0.00 in0.0 mm 0.00 in0.0 mm
06:22 PM 36.2°F2.3°C 20.4°F-6.4°C 53% 5.0 mph WSW8.0 kmh WSW 18.0 mph29.0 kmh 29.98 in1015.2 mb 0.00 in0.0 mm 0.00 in0.0 mm 0.00 in0.0 mm
06:27 PM 36.1°F2.3°C 20.3°F-6.5°C 53% 6.0 mph WSW9.7 kmh WSW 18.0 mph29.0 kmh 29.98 in1015.2 mb 0.00 in0.0 mm 0.00 in0.0 mm 0.00 in0.0 mm
06:32 PM 36.0°F2.2°C 20.2°F-6.6°C 53% 5.0 mph W8.0 kmh W 18.0 mph29.0 kmh 29.98 in1015.2 mb 0.00 in0.0 mm 0.00 in0.0 mm 0.00 in0.0 mm
06:37 PM 36.0°F2.2°C 20.2°F-6.6°C 53% 4.0 mph WSW6.4 kmh WSW 16.0 mph25.7 kmh 29.98 in1015.2 mb 0.00 in0.0 mm 0.00 in0.0 mm 0.00 in0.0 mm
06:42 PM 35.9°F2.2°C 20.1°F-6.6°C 53% 5.0 mph WSW8.0 kmh WSW 16.0 mph25.7 kmh 29.98 in1015.2 mb 0.00 in0.0 mm 0.00 in0.0 mm 0.00 in0.0 mm
06:47 PM 35.7°F2.1°C 19.9°F-6.7°C 53% 5.0 mph WSW8.0 kmh WSW 14.0 mph22.5 kmh 29.98 in1015.2 mb 0.00 in0.0 mm 0.00 in0.0 mm 0.00 in0.0 mm
06:52 PM 35.6°F2.0°C 19.4°F-7.0°C 52% 6.0 mph WSW9.7 kmh WSW 15.0 mph24.1 kmh 29.99 in1015.6 mb 0.00 in0.0 mm 0.00 in0.0 mm 0.00 in0.0 mm
06:57 PM 35.5°F1.9°C 18.8°F-7.3°C 51% 9.0 mph WSW14.5 kmh WSW 15.0 mph24.1 kmh 29.99 in1015.6 mb 0.00 in0.0 mm 0.00 in0.0 mm 0.00 in0.0 mm
07:02 PM 35.4°F1.9°C 18.7°F-7.4°C 51% 5.0 mph WSW8.0 kmh WSW 15.0 mph24.1 kmh 29.99 in1015.6 mb 0.00 in0.0 mm 0.00 in0.0 mm 0.00 in0.0 mm
07:07 PM 35.3°F1.8°C 18.1°F-7.7°C 50% 13.0 mph WSW20.9 kmh WSW 15.0 mph24.1 kmh 30.00 in1015.9 mb 0.00 in0.0 mm 0.00 in0.0 mm 0.00 in0.0 mm
07:12 PM 35.3°F1.8°C 17.2°F-8.2°C 48% 6.0 mph WSW9.7 kmh WSW 18.0 mph29.0 kmh 30.00 in1015.9 mb 0.00 in0.0 mm 0.00 in0.0 mm 0.00 in0.0 mm
07:17 PM 35.3°F1.8°C 17.2°F-8.2°C 48% 11.0 mph WSW17.7 kmh WSW 18.0 mph29.0 kmh 30.00 in1015.9 mb 0.00 in0.0 mm 0.00 in0.0 mm 0.00 in0.0 mm
07:22 PM 35.1°F1.7°C 17.0°F-8.3°C 48% 8.0 mph SW12.9 kmh SW 18.0 mph29.0 kmh 30.00 in1015.9 mb 0.00 in0.0 mm 0.00 in0.0 mm 0.00 in0.0 mm
07:27 PM 35.1°F1.7°C 16.5°F-8.6°C 47% 4.0 mph WSW6.4 kmh WSW 18.0 mph29.0 kmh 30.00 in1015.9 mb 0.00 in0.0 mm 0.00 in0.0 mm 0.00 in0.0 mm
07:32 PM 34.9°F1.6°C 16.8°F-8.4°C 48% 5.0 mph W8.0 kmh W 16.0 mph25.7 kmh 30.00 in1015.9 mb 0.00 in0.0 mm 0.00 in0.0 mm 0.00 in0.0 mm
07:37 PM 34.7°F1.5°C 16.1°F-8.8°C 47% 5.0 mph W8.0 kmh W 16.0 mph25.7 kmh 30.00 in1015.9 mb 0.00 in0.0 mm 0.00 in0.0 mm 0.00 in0.0 mm
07:42 PM 34.6°F1.4°C 16.0°F-8.9°C 47% 4.0 mph WSW6.4 kmh WSW 14.0 mph22.5 kmh 30.00 in1015.9 mb 0.00 in0.0 mm 0.00 in0.0 mm 0.00 in0.0 mm
07:47 PM 34.5°F1.4°C 15.9°F-8.9°C 47% 12.0 mph WSW19.3 kmh WSW 16.0 mph25.7 kmh 30.01 in1016.3 mb 0.00 in0.0 mm 0.00 in0.0 mm 0.00 in0.0 mm
07:52 PM 34.4°F1.3°C 15.3°F-9.3°C 46% 7.0 mph WSW11.3 kmh WSW 18.0 mph29.0 kmh 30.01 in1016.3 mb 0.00 in0.0 mm 0.00 in0.0 mm 0.00 in0.0 mm
07:57 PM 34.3°F1.3°C 15.7°F-9.1°C 47% 5.0 mph WSW8.0 kmh WSW 18.0 mph29.0 kmh 30.01 in1016.3 mb 0.00 in0.0 mm 0.00 in0.0 mm 0.00 in0.0 mm
08:02 PM 34.2°F1.2°C 15.1°F-9.4°C 46% 8.0 mph WSW12.9 kmh WSW 18.0 mph29.0 kmh 30.02 in1016.6 mb 0.00 in0.0 mm 0.00 in0.0 mm 0.00 in0.0 mm
08:07 PM 34.1°F1.2°C 15.0°F-9.4°C 46% 9.0 mph W14.5 kmh W 18.0 mph29.0 kmh 30.02 in1016.6 mb 0.00 in0.0 mm 0.00 in0.0 mm 0.00 in0.0 mm
08:12 PM 34.1°F1.2°C 15.0°F-9.4°C 46% 6.0 mph SW9.7 kmh SW 18.0 mph29.0 kmh 30.02 in1016.6 mb 0.00 in0.0 mm 0.00 in0.0 mm 0.00 in0.0 mm
08:17 PM 34.0°F1.1°C 15.0°F-9.4°C 46% 9.0 mph WSW14.5 kmh WSW 18.0 mph29.0 kmh 30.02 in1016.6 mb 0.00 in0.0 mm 0.00 in0.0 mm 0.00 in0.0 mm
08:22 PM 33.9°F1.1°C 14.9°F-9.5°C 46% 8.0 mph WSW12.9 kmh WSW 18.0 mph29.0 kmh 30.02 in1016.6 mb 0.00 in0.0 mm 0.00 in0.0 mm 0.00 in0.0 mm
08:27 PM 33.7°F0.9°C 14.7°F-9.6°C 46% 7.0 mph WSW11.3 kmh WSW 18.0 mph29.0 kmh 30.02 in1016.6 mb 0.00 in0.0 mm 0.00 in0.0 mm 0.00 in0.0 mm
08:32 PM 33.7°F0.9°C 14.7°F-9.6°C 46% 6.0 mph WSW9.7 kmh WSW 16.0 mph25.7 kmh 30.02 in1016.6 mb 0.00 in0.0 mm 0.00 in0.0 mm 0.00 in0.0 mm
08:37 PM 33.6°F0.9°C 14.6°F-9.7°C 46% 11.0 mph WSW17.7 kmh WSW 16.0 mph25.7 kmh 30.02 in1016.6 mb 0.00 in0.0 mm 0.00 in0.0 mm 0.00 in0.0 mm
08:42 PM 33.6°F0.9°C 14.6°F-9.7°C 46% 4.0 mph WSW6.4 kmh WSW 16.0 mph25.7 kmh 30.02 in1016.6 mb 0.00 in0.0 mm 0.00 in0.0 mm 0.00 in0.0 mm
08:47 PM 33.4°F0.8°C 14.4°F-9.8°C 46% 6.0 mph WSW9.7 kmh WSW 16.0 mph25.7 kmh 30.02 in1016.6 mb 0.00 in0.0 mm 0.00 in0.0 mm 0.00 in0.0 mm
08:52 PM 33.3°F0.7°C 14.3°F-9.8°C 46% 8.0 mph WSW12.9 kmh WSW 12.0 mph19.3 kmh 30.02 in1016.6 mb 0.00 in0.0 mm 0.00 in0.0 mm 0.00 in0.0 mm
08:57 PM 33.2°F0.7°C 14.2°F-9.9°C 46% 7.0 mph WSW11.3 kmh WSW 18.0 mph29.0 kmh 30.02 in1016.6 mb 0.00 in0.0 mm 0.00 in0.0 mm 0.00 in0.0 mm
09:02 PM 33.1°F0.6°C 14.1°F-9.9°C 46% 6.0 mph WSW9.7 kmh WSW 18.0 mph29.0 kmh 30.03 in1016.9 mb 0.00 in0.0 mm 0.00 in0.0 mm 0.00 in0.0 mm
09:07 PM 33.0°F0.6°C 14.0°F-10.0°C 46% 4.0 mph WSW6.4 kmh WSW 18.0 mph29.0 kmh 30.03 in1016.9 mb 0.00 in0.0 mm 0.00 in0.0 mm 0.00 in0.0 mm
09:12 PM 32.9°F0.5°C 14.5°F-9.7°C 47% 5.0 mph WSW8.0 kmh WSW 18.0 mph29.0 kmh 30.03 in1016.9 mb 0.00 in0.0 mm 0.00 in0.0 mm 0.00 in0.0 mm
09:17 PM 32.8°F0.4°C 14.4°F-9.8°C 47% 6.0 mph WSW9.7 kmh WSW 13.0 mph20.9 kmh 30.03 in1016.9 mb 0.00 in0.0 mm 0.00 in0.0 mm 0.00 in0.0 mm
09:22 PM 32.7°F0.4°C 14.3°F-9.8°C 47% 4.0 mph WSW6.4 kmh WSW 13.0 mph20.9 kmh 30.04 in1017.3 mb 0.00 in0.0 mm 0.00 in0.0 mm 0.00 in0.0 mm
09:27 PM 32.6°F0.3°C 14.2°F-9.9°C 47% 4.0 mph WSW6.4 kmh WSW 14.0 mph22.5 kmh 30.03 in1016.9 mb 0.00 in0.0 mm 0.00 in0.0 mm 0.00 in0.0 mm
09:32 PM 32.5°F0.3°C 14.1°F-9.9°C 47% 8.0 mph SW12.9 kmh SW 14.0 mph22.5 kmh 30.04 in1017.3 mb 0.00 in0.0 mm 0.00 in0.0 mm 0.00 in0.0 mm
09:37 PM 32.4°F0.2°C 14.0°F-10.0°C 47% 7.0 mph WSW11.3 kmh WSW 14.0 mph22.5 kmh 30.03 in1016.9 mb 0.00 in0.0 mm 0.00 in0.0 mm 0.00 in0.0 mm
09:42 PM 32.4°F0.2°C 14.0°F-10.0°C 47% 5.0 mph SW8.0 kmh SW 14.0 mph22.5 kmh 30.04 in1017.3 mb 0.00 in0.0 mm 0.00 in0.0 mm 0.00 in0.0 mm
09:47 PM 32.3°F0.2°C 13.9°F-10.1°C 47% 6.0 mph SW9.7 kmh SW 13.0 mph20.9 kmh 30.04 in1017.3 mb 0.00 in0.0 mm 0.00 in0.0 mm 0.00 in0.0 mm
09:52 PM 32.2°F0.1°C 13.8°F-10.1°C 47% 4.0 mph WSW6.4 kmh WSW 13.0 mph20.9 kmh 30.04 in1017.3 mb 0.00 in0.0 mm 0.00 in0.0 mm 0.00 in0.0 mm
09:57 PM 32.1°F0.1°C 13.7°F-10.2°C 47% 6.0 mph WSW9.7 kmh WSW 12.0 mph19.3 kmh 30.04 in1017.3 mb 0.00 in0.0 mm 0.00 in0.0 mm 0.00 in0.0 mm
10:02 PM 32.0°F0.0°C 13.1°F-10.5°C 46% 6.0 mph WSW9.7 kmh WSW 12.0 mph19.3 kmh 30.04 in1017.3 mb 0.00 in0.0 mm 0.00 in0.0 mm 0.00 in0.0 mm
10:07 PM 31.9°F-0.1°C 13.0°F-10.6°C 46% 6.0 mph WSW9.7 kmh WSW 10.0 mph16.1 kmh 30.04 in1017.3 mb 0.00 in0.0 mm 0.00 in0.0 mm 0.00 in0.0 mm
10:12 PM 31.8°F-0.1°C 12.9°F-10.6°C 46% 4.0 mph WSW6.4 kmh WSW 10.0 mph16.1 kmh 30.04 in1017.3 mb 0.00 in0.0 mm 0.00 in0.0 mm 0.00 in0.0 mm
10:17 PM 31.8°F-0.1°C 13.5°F-10.3°C 47% 6.0 mph WSW9.7 kmh WSW 10.0 mph16.1 kmh 30.04 in1017.3 mb 0.00 in0.0 mm 0.00 in0.0 mm 0.00 in0.0 mm
10:22 PM 31.8°F-0.1°C 13.5°F-10.3°C 47% 9.0 mph WSW14.5 kmh WSW 11.0 mph17.7 kmh 30.04 in1017.3 mb 0.00 in0.0 mm 0.00 in0.0 mm 0.00 in0.0 mm
10:27 PM 31.7°F-0.2°C 13.4°F-10.3°C 47% 7.0 mph SW11.3 kmh SW 11.0 mph17.7 kmh 30.04 in1017.3 mb 0.00 in0.0 mm 0.00 in0.0 mm 0.00 in0.0 mm
10:32 PM 31.7°F-0.2°C 13.4°F-10.3°C 47% 3.0 mph WSW4.8 kmh WSW 12.0 mph19.3 kmh 30.04 in1017.3 mb 0.00 in0.0 mm 0.00 in0.0 mm 0.00 in0.0 mm
10:37 PM 31.6°F-0.2°C 13.3°F-10.4°C 47% 4.0 mph WSW6.4 kmh WSW 12.0 mph19.3 kmh 30.04 in1017.3 mb 0.00 in0.0 mm 0.00 in0.0 mm 0.00 in0.0 mm
10:42 PM 31.5°F-0.3°C 13.2°F-10.4°C 47% 8.0 mph W12.9 kmh W 12.0 mph19.3 kmh 30.04 in1017.3 mb 0.00 in0.0 mm 0.00 in0.0 mm 0.00 in0.0 mm
10:47 PM 31.5°F-0.3°C 13.2°F-10.4°C 47% 5.0 mph WSW8.0 kmh WSW 12.0 mph19.3 kmh 30.04 in1017.3 mb 0.00 in0.0 mm 0.00 in0.0 mm 0.00 in0.0 mm
10:52 PM 31.4°F-0.3°C 13.6°F-10.2°C 48% 4.0 mph WSW6.4 kmh WSW 10.0 mph16.1 kmh 30.04 in1017.3 mb 0.00 in0.0 mm 0.00 in0.0 mm 0.00 in0.0 mm
10:57 PM 31.3°F-0.4°C 13.5°F-10.3°C 48% 6.0 mph WSW9.7 kmh WSW 10.0 mph16.1 kmh 30.04 in1017.3 mb 0.00 in0.0 mm 0.00 in0.0 mm 0.00 in0.0 mm
11:02 PM 31.2°F-0.4°C 13.4°F-10.3°C 48% 4.0 mph WSW6.4 kmh WSW 9.0 mph14.5 kmh 30.04 in1017.3 mb 0.00 in0.0 mm 0.00 in0.0 mm 0.00 in0.0 mm
11:07 PM 31.2°F-0.4°C 13.4°F-10.3°C 48% 4.0 mph WSW6.4 kmh WSW 9.0 mph14.5 kmh 30.04 in1017.3 mb 0.00 in0.0 mm 0.00 in0.0 mm 0.00 in0.0 mm
11:12 PM 31.1°F-0.5°C 13.3°F-10.4°C 48% 4.0 mph WSW6.4 kmh WSW 8.0 mph12.9 kmh 30.03 in1016.9 mb 0.00 in0.0 mm 0.00 in0.0 mm 0.00 in0.0 mm
11:17 PM 31.1°F-0.5°C 13.3°F-10.4°C 48% 7.0 mph SW11.3 kmh SW 12.0 mph19.3 kmh 30.03 in1016.9 mb 0.00 in0.0 mm 0.00 in0.0 mm 0.00 in0.0 mm
11:22 PM 31.0°F-0.6°C 13.2°F-10.4°C 48% 3.0 mph SW4.8 kmh SW 12.0 mph19.3 kmh 30.03 in1016.9 mb 0.00 in0.0 mm 0.00 in0.0 mm 0.00 in0.0 mm
11:27 PM 30.9°F-0.6°C 13.1°F-10.5°C 48% 3.0 mph SW4.8 kmh SW 12.0 mph19.3 kmh 30.03 in1016.9 mb 0.00 in0.0 mm 0.00 in0.0 mm 0.00 in0.0 mm
11:32 PM 30.8°F-0.7°C 13.5°F-10.3°C 49% 3.0 mph WSW4.8 kmh WSW 12.0 mph19.3 kmh 30.03 in1016.9 mb 0.00 in0.0 mm 0.00 in0.0 mm 0.00 in0.0 mm
11:37 PM 30.7°F-0.7°C 13.4°F-10.3°C 49% 5.0 mph SW8.0 kmh SW 7.0 mph11.3 kmh 30.04 in1017.3 mb 0.00 in0.0 mm 0.00 in0.0 mm 0.00 in0.0 mm
11:42 PM 30.5°F-0.8°C 13.3°F-10.4°C 49% 5.0 mph WSW8.0 kmh WSW 10.0 mph16.1 kmh 30.04 in1017.3 mb 0.00 in0.0 mm 0.00 in0.0 mm 0.00 in0.0 mm
11:47 PM 30.5°F-0.8°C 13.3°F-10.4°C 49% 4.0 mph SW6.4 kmh SW 11.0 mph17.7 kmh 30.04 in1017.3 mb 0.00 in0.0 mm 0.00 in0.0 mm 0.00 in0.0 mm
11:52 PM 30.5°F-0.8°C 13.3°F-10.4°C 49% 2.0 mph WSW3.2 kmh WSW 11.0 mph17.7 kmh 30.04 in1017.3 mb 0.00 in0.0 mm 0.00 in0.0 mm 0.00 in0.0 mm
11:57 PM 30.4°F-0.9°C 13.2°F-10.4°C 49% 4.0 mph WSW6.4 kmh WSW 11.0 mph17.7 kmh 30.03 in1016.9 mb 0.00 in0.0 mm 0.00 in0.0 mm 0.00 in0.0 mm